createdAt,value
2018-12-01T01:31:32.340Z,1009.64
2018-12-01T01:31:32.913Z,1009.60
2018-12-01T01:31:33.513Z,1009.62
2018-12-01T01:31:34.112Z,1009.61
2018-12-01T01:31:34.713Z,1009.58
2018-12-01T01:31:35.311Z,1009.60
2018-12-01T01:31:35.914Z,1009.59
2018-12-01T01:31:36.511Z,1009.61
2018-12-01T01:32:29.992Z,1009.61
2018-12-01T01:32:30.566Z,1009.62
2018-12-01T01:32:31.166Z,1009.62
2018-12-01T01:32:31.766Z,1009.60
2018-12-01T01:32:32.366Z,1009.60
2018-12-01T01:32:32.965Z,1009.63
2018-12-01T01:32:33.565Z,1009.60
2018-12-01T01:32:34.164Z,1009.59
2018-12-01T01:33:27.645Z,1009.61
2018-12-01T01:33:28.221Z,1009.64
2018-12-01T01:33:28.819Z,1009.61
2018-12-01T01:33:29.419Z,1009.59
2018-12-01T01:33:30.017Z,1009.61
2018-12-01T01:33:30.617Z,1009.59
2018-12-01T01:33:31.215Z,1009.59
2018-12-01T01:33:31.815Z,1009.62
2018-12-01T01:34:25.297Z,1009.61
2018-12-01T01:34:25.871Z,1009.62
2018-12-01T01:34:26.470Z,1009.60
2018-12-01T01:34:27.070Z,1009.61
2018-12-01T01:34:27.669Z,1009.59
2018-12-01T01:34:28.269Z,1009.60
2018-12-01T01:34:28.870Z,1009.62
2018-12-01T01:34:29.470Z,1009.61
2018-12-01T01:35:24.010Z,1009.62
2018-12-01T01:35:24.547Z,1009.61
2018-12-01T01:35:25.146Z,1009.58
2018-12-01T01:35:25.745Z,1009.57
2018-12-01T01:35:26.345Z,1009.60
2018-12-01T01:35:26.945Z,1009.62
2018-12-01T01:35:27.544Z,1009.61
2018-12-01T01:35:28.146Z,1009.63
2018-12-01T01:36:22.653Z,1009.59
2018-12-01T01:36:23.221Z,1009.58
2018-12-01T01:36:23.824Z,1009.57
2018-12-01T01:36:24.422Z,1009.56
2018-12-01T01:36:25.021Z,1009.52
2018-12-01T01:36:25.621Z,1009.54
2018-12-01T01:36:26.224Z,1009.55
2018-12-01T01:36:26.821Z,1009.58
2018-12-01T01:37:20.304Z,1009.55
2018-12-01T01:37:20.875Z,1009.52
2018-12-01T01:37:21.476Z,1009.56
2018-12-01T01:37:22.077Z,1009.55
2018-12-01T01:37:22.674Z,1009.57
2018-12-01T01:37:23.276Z,1009.57
2018-12-01T01:37:23.874Z,1009.58
2018-12-01T01:37:24.474Z,1009.54
2018-12-01T01:38:18.977Z,1009.59
2018-12-01T01:38:19.551Z,1009.62
2018-12-01T01:38:20.149Z,1009.60
2018-12-01T01:38:20.749Z,1009.59
2018-12-01T01:38:21.351Z,1009.58
2018-12-01T01:38:21.949Z,1009.56
2018-12-01T01:38:22.549Z,1009.57
2018-12-01T01:38:23.151Z,1009.56
2018-12-01T01:39:17.653Z,1009.56
2018-12-01T01:39:18.226Z,1009.54
2018-12-01T01:39:18.826Z,1009.56
2018-12-01T01:39:19.428Z,1009.56
2018-12-01T01:39:20.026Z,1009.55
2018-12-01T01:39:20.625Z,1009.56
2018-12-01T01:39:21.225Z,1009.56
2018-12-01T01:39:21.825Z,1009.54
2018-12-01T01:40:15.314Z,1009.52
2018-12-01T01:40:15.880Z,1009.56
2018-12-01T01:40:16.484Z,1009.54
2018-12-01T01:40:17.081Z,1009.57
2018-12-01T01:40:17.678Z,1009.54
2018-12-01T01:40:18.282Z,1009.54
2018-12-01T01:40:18.877Z,1009.54
2018-12-01T01:40:19.477Z,1009.56
2018-12-01T01:41:14.006Z,1009.54
2018-12-01T01:41:14.554Z,1009.54
2018-12-01T01:41:15.153Z,1009.53
2018-12-01T01:41:15.753Z,1009.52
2018-12-01T01:41:16.353Z,1009.56
2018-12-01T01:41:16.953Z,1009.56
2018-12-01T01:41:17.554Z,1009.53
2018-12-01T01:41:18.153Z,1009.55
2018-12-01T01:42:23.309Z,1009.52
2018-12-01T01:42:23.880Z,1009.54
2018-12-01T01:42:24.483Z,1009.56
2018-12-01T01:42:25.081Z,1009.54
2018-12-01T01:42:25.680Z,1009.52
2018-12-01T01:42:26.280Z,1009.54
2018-12-01T01:42:26.881Z,1009.54
2018-12-01T01:42:27.480Z,1009.51
2018-12-01T01:43:21.985Z,1009.54
2018-12-01T01:43:22.556Z,1009.50
2018-12-01T01:43:23.154Z,1009.54
2018-12-01T01:43:23.761Z,1009.54
2018-12-01T01:43:24.356Z,1009.55
2018-12-01T01:43:24.956Z,1009.55
2018-12-01T01:43:25.555Z,1009.53
2018-12-01T01:43:26.154Z,1009.55
2018-12-01T01:44:20.667Z,1009.54
2018-12-01T01:44:21.230Z,1009.56
2018-12-01T01:44:21.841Z,1009.56
2018-12-01T01:44:22.475Z,1009.53
2018-12-01T01:44:23.030Z,1009.55
2018-12-01T01:44:23.631Z,1009.56
2018-12-01T01:44:24.230Z,1009.53
2018-12-01T01:44:24.832Z,1009.53
2018-12-01T01:45:19.334Z,1009.54
2018-12-01T01:45:19.909Z,1009.50
2018-12-01T01:45:20.509Z,1009.52
2018-12-01T01:45:21.107Z,1009.54
2018-12-01T01:45:21.705Z,1009.52
2018-12-01T01:45:22.306Z,1009.44
2018-12-01T01:45:22.906Z,1009.50
2018-12-01T01:45:23.505Z,1009.51
2018-12-01T01:46:18.010Z,1009.51
2018-12-01T01:46:18.583Z,1009.53
2018-12-01T01:46:19.183Z,1009.51
2018-12-01T01:46:19.782Z,1009.53
2018-12-01T01:46:20.381Z,1009.51
2018-12-01T01:46:20.981Z,1009.51
2018-12-01T01:46:21.582Z,1009.51
2018-12-01T01:46:22.180Z,1009.50
2018-12-01T01:47:16.686Z,1009.54
2018-12-01T01:47:17.259Z,1009.47
2018-12-01T01:47:17.858Z,1009.47
2018-12-01T01:47:18.458Z,1009.50
2018-12-01T01:47:19.062Z,1009.46
2018-12-01T01:47:19.659Z,1009.49
2018-12-01T01:47:20.258Z,1009.48
2018-12-01T01:47:20.858Z,1009.53
2018-12-01T01:48:15.361Z,1009.50
2018-12-01T01:48:15.935Z,1009.52
2018-12-01T01:48:16.534Z,1009.53
2018-12-01T01:48:17.135Z,1009.48
2018-12-01T01:48:17.734Z,1009.52
2018-12-01T01:48:18.333Z,1009.53
2018-12-01T01:48:18.934Z,1009.52
2018-12-01T01:48:19.533Z,1009.51
2018-12-01T01:49:13.015Z,1009.50
2018-12-01T01:49:13.586Z,1009.47
2018-12-01T01:49:14.186Z,1009.52
2018-12-01T01:49:14.786Z,1009.51
2018-12-01T01:49:15.387Z,1009.51
2018-12-01T01:49:15.987Z,1009.48
2018-12-01T01:49:16.587Z,1009.51
2018-12-01T01:49:17.185Z,1009.47
2018-12-01T01:50:10.666Z,1009.49
2018-12-01T01:50:11.239Z,1009.50
2018-12-01T01:50:11.841Z,1009.46
2018-12-01T01:50:12.477Z,1009.46
2018-12-01T01:50:13.038Z,1009.44
2018-12-01T01:50:13.640Z,1009.46
2018-12-01T01:50:14.238Z,1009.46
2018-12-01T01:50:14.839Z,1009.45
2018-12-01T01:51:08.317Z,1009.49
2018-12-01T01:51:08.890Z,1009.50
2018-12-01T01:51:09.491Z,1009.45
2018-12-01T01:51:10.091Z,1009.45
2018-12-01T01:51:10.692Z,1009.49
2018-12-01T01:51:11.290Z,1009.46
2018-12-01T01:51:11.890Z,1009.45
2018-12-01T01:51:12.491Z,1009.42
2018-12-01T01:52:06.996Z,1009.44
2018-12-01T01:52:07.565Z,1009.44
2018-12-01T01:52:08.165Z,1009.45
2018-12-01T01:52:08.765Z,1009.46
2018-12-01T01:52:09.364Z,1009.45
2018-12-01T01:52:09.964Z,1009.44
2018-12-01T01:52:10.564Z,1009.45
2018-12-01T01:52:11.163Z,1009.43
2018-12-01T01:53:05.669Z,1009.43
2018-12-01T01:53:06.242Z,1009.41
2018-12-01T01:53:06.841Z,1009.45
2018-12-01T01:53:07.442Z,1009.42
2018-12-01T01:53:08.042Z,1009.42
2018-12-01T01:53:08.640Z,1009.44
2018-12-01T01:53:09.239Z,1009.43
2018-12-01T01:53:09.841Z,1009.47
2018-12-01T01:54:04.344Z,1009.50
2018-12-01T01:54:04.918Z,1009.44
2018-12-01T01:54:05.519Z,1009.47
2018-12-01T01:54:06.118Z,1009.47
2018-12-01T01:54:06.717Z,1009.50
2018-12-01T01:54:07.318Z,1009.47
2018-12-01T01:54:07.918Z,1009.47
2018-12-01T01:54:08.521Z,1009.46
2018-12-01T01:55:01.997Z,1009.47
2018-12-01T01:55:02.571Z,1009.47
2018-12-01T01:55:03.171Z,1009.44
2018-12-01T01:55:03.771Z,1009.46
2018-12-01T01:55:04.369Z,1009.46
2018-12-01T01:55:04.970Z,1009.46
2018-12-01T01:55:05.569Z,1009.45
2018-12-01T01:55:06.169Z,1009.47
2018-12-01T01:55:59.649Z,1009.45
2018-12-01T01:56:00.223Z,1009.48
2018-12-01T01:56:00.820Z,1009.45
2018-12-01T01:56:01.421Z,1009.45
2018-12-01T01:56:02.023Z,1009.45
2018-12-01T01:56:02.621Z,1009.45
2018-12-01T01:56:03.228Z,1009.45
2018-12-01T01:56:03.820Z,1009.46
2018-12-01T01:56:57.301Z,1009.48
2018-12-01T01:56:57.875Z,1009.42
2018-12-01T01:56:58.474Z,1009.46
2018-12-01T01:56:59.076Z,1009.46
2018-12-01T01:56:59.673Z,1009.41
2018-12-01T01:57:00.272Z,1009.43
2018-12-01T01:57:00.873Z,1009.46
2018-12-01T01:57:01.473Z,1009.45
2018-12-01T01:57:55.975Z,1009.45
2018-12-01T01:57:56.548Z,1009.43
2018-12-01T01:57:57.148Z,1009.45
2018-12-01T01:57:57.747Z,1009.44
2018-12-01T01:57:58.349Z,1009.44
2018-12-01T01:57:58.947Z,1009.43
2018-12-01T01:57:59.547Z,1009.43
2018-12-01T01:58:00.147Z,1009.43
2018-12-01T01:58:54.653Z,1009.41
2018-12-01T01:58:55.224Z,1009.43
2018-12-01T01:58:55.824Z,1009.38
2018-12-01T01:58:56.428Z,1009.39
2018-12-01T01:58:57.024Z,1009.43
2018-12-01T01:58:57.623Z,1009.37
2018-12-01T01:58:58.227Z,1009.44
2018-12-01T01:58:58.824Z,1009.42
2018-12-01T01:59:53.333Z,1009.40
2018-12-01T01:59:53.901Z,1009.44
2018-12-01T01:59:54.499Z,1009.39
2018-12-01T01:59:55.099Z,1009.40
2018-12-01T01:59:55.701Z,1009.42
2018-12-01T01:59:56.299Z,1009.41
2018-12-01T01:59:56.898Z,1009.44
2018-12-01T01:59:57.498Z,1009.39
2018-12-01T02:00:50.980Z,1009.42
2018-12-01T02:00:51.552Z,1009.41
2018-12-01T02:00:52.152Z,1009.38
2018-12-01T02:00:52.752Z,1009.40
2018-12-01T02:00:53.352Z,1009.42
2018-12-01T02:00:53.951Z,1009.39
2018-12-01T02:00:54.552Z,1009.41
2018-12-01T02:00:55.151Z,1009.38
2018-12-01T02:01:49.656Z,1009.41
2018-12-01T02:01:50.227Z,1009.40
2018-12-01T02:01:50.828Z,1009.43
2018-12-01T02:01:51.426Z,1009.43
2018-12-01T02:01:52.029Z,1009.41
2018-12-01T02:01:52.626Z,1009.41
2018-12-01T02:01:53.226Z,1009.40
2018-12-01T02:01:53.826Z,1009.39
2018-12-01T02:02:47.311Z,1009.44
2018-12-01T02:02:47.880Z,1009.44
2018-12-01T02:02:48.477Z,1009.42
2018-12-01T02:02:49.077Z,1009.44
2018-12-01T02:02:49.680Z,1009.45
2018-12-01T02:02:50.277Z,1009.43
2018-12-01T02:02:50.877Z,1009.47
2018-12-01T02:02:51.485Z,1009.45
2018-12-01T02:03:44.959Z,1009.45
2018-12-01T02:03:45.532Z,1009.42
2018-12-01T02:03:46.131Z,1009.47
2018-12-01T02:03:46.731Z,1009.46
2018-12-01T02:03:47.331Z,1009.49
2018-12-01T02:03:47.931Z,1009.47
2018-12-01T02:03:48.532Z,1009.43
2018-12-01T02:03:49.131Z,1009.47
2018-12-01T02:04:42.605Z,1009.45
2018-12-01T02:04:43.181Z,1009.47
2018-12-01T02:04:43.779Z,1009.50
2018-12-01T02:04:44.379Z,1009.47
2018-12-01T02:04:44.980Z,1009.44
2018-12-01T02:04:45.578Z,1009.49
2018-12-01T02:04:46.178Z,1009.43
2018-12-01T02:04:46.779Z,1009.42
2018-12-01T02:05:41.281Z,1009.49
2018-12-01T02:05:41.853Z,1009.47
2018-12-01T02:05:42.455Z,1009.49
2018-12-01T02:05:43.053Z,1009.43
2018-12-01T02:05:43.654Z,1009.49
2018-12-01T02:05:44.253Z,1009.48
2018-12-01T02:05:44.853Z,1009.49
2018-12-01T02:05:45.452Z,1009.43
2018-12-01T02:06:38.930Z,1009.44
2018-12-01T02:06:39.507Z,1009.45
2018-12-01T02:06:40.106Z,1009.40
2018-12-01T02:06:40.707Z,1009.45
2018-12-01T02:06:41.309Z,1009.44
2018-12-01T02:06:41.906Z,1009.46
2018-12-01T02:06:42.506Z,1009.48
2018-12-01T02:06:43.106Z,1009.46
2018-12-01T02:07:37.608Z,1009.42
2018-12-01T02:07:38.181Z,1009.43
2018-12-01T02:07:38.781Z,1009.43
2018-12-01T02:07:39.382Z,1009.44
2018-12-01T02:07:39.982Z,1009.45
2018-12-01T02:07:40.581Z,1009.43
2018-12-01T02:07:41.181Z,1009.44
2018-12-01T02:07:41.782Z,1009.46
2018-12-01T02:08:35.259Z,1009.46
2018-12-01T02:08:35.833Z,1009.44
2018-12-01T02:08:36.432Z,1009.44
2018-12-01T02:08:37.033Z,1009.42
2018-12-01T02:08:37.632Z,1009.44
2018-12-01T02:08:38.233Z,1009.42
2018-12-01T02:08:38.832Z,1009.46
2018-12-01T02:08:39.432Z,1009.47
2018-12-01T02:09:32.910Z,1009.42
2018-12-01T02:09:33.486Z,1009.42
2018-12-01T02:09:34.086Z,1009.45
2018-12-01T02:09:34.685Z,1009.42
2018-12-01T02:09:35.285Z,1009.43
2018-12-01T02:09:35.885Z,1009.44
2018-12-01T02:09:36.483Z,1009.43
2018-12-01T02:09:37.086Z,1009.42
2018-12-01T02:10:31.587Z,1009.40
2018-12-01T02:10:32.160Z,1009.41
2018-12-01T02:10:32.759Z,1009.42
2018-12-01T02:10:33.360Z,1009.36
2018-12-01T02:10:33.959Z,1009.39
2018-12-01T02:10:34.560Z,1009.42
2018-12-01T02:10:35.160Z,1009.40
2018-12-01T02:10:35.760Z,1009.39
2018-12-01T02:11:30.262Z,1009.36
2018-12-01T02:11:30.837Z,1009.38
2018-12-01T02:11:31.435Z,1009.36
2018-12-01T02:11:32.036Z,1009.41
2018-12-01T02:11:32.635Z,1009.43
2018-12-01T02:11:33.236Z,1009.44
2018-12-01T02:11:33.835Z,1009.39
2018-12-01T02:11:34.434Z,1009.39
2018-12-01T02:12:28.937Z,1009.39
2018-12-01T02:12:29.511Z,1009.37
2018-12-01T02:12:30.111Z,1009.38
2018-12-01T02:12:30.710Z,1009.38
2018-12-01T02:12:31.311Z,1009.35
2018-12-01T02:12:31.910Z,1009.39
2018-12-01T02:12:32.511Z,1009.39
2018-12-01T02:12:33.111Z,1009.38
2018-12-01T02:13:27.613Z,1009.41
2018-12-01T02:13:28.187Z,1009.39
2018-12-01T02:13:28.788Z,1009.36
2018-12-01T02:13:29.386Z,1009.35
2018-12-01T02:13:29.986Z,1009.37
2018-12-01T02:13:30.586Z,1009.36
2018-12-01T02:13:31.186Z,1009.37
2018-12-01T02:13:31.786Z,1009.39
2018-12-01T02:14:26.290Z,1009.39
2018-12-01T02:14:26.862Z,1009.40
2018-12-01T02:14:27.463Z,1009.40
2018-12-01T02:14:28.062Z,1009.43
2018-12-01T02:14:28.662Z,1009.40
2018-12-01T02:14:29.262Z,1009.37
2018-12-01T02:14:29.863Z,1009.40
2018-12-01T02:14:30.462Z,1009.41
2018-12-01T02:15:23.943Z,1009.40
2018-12-01T02:15:24.515Z,1009.39
2018-12-01T02:15:25.115Z,1009.43
2018-12-01T02:15:25.715Z,1009.37
2018-12-01T02:15:26.316Z,1009.37
2018-12-01T02:15:26.916Z,1009.37
2018-12-01T02:15:27.515Z,1009.43
2018-12-01T02:15:28.115Z,1009.37
2018-12-01T02:16:22.618Z,1009.34
2018-12-01T02:16:23.191Z,1009.35
2018-12-01T02:16:24.506Z,1009.37
2018-12-01T02:16:24.545Z,1009.36
2018-12-01T02:16:24.991Z,1009.36
2018-12-01T02:16:25.590Z,1009.36
2018-12-01T02:16:26.190Z,1009.37
2018-12-01T02:16:26.789Z,1009.39
2018-12-01T02:17:21.292Z,1009.37
2018-12-01T02:17:21.866Z,1009.34
2018-12-01T02:17:22.472Z,1009.34
2018-12-01T02:17:23.067Z,1009.38
2018-12-01T02:17:23.666Z,1009.36
2018-12-01T02:17:24.266Z,1009.37
2018-12-01T02:17:24.866Z,1009.36
2018-12-01T02:17:25.465Z,1009.38
2018-12-01T02:18:19.973Z,1009.38
2018-12-01T02:18:20.542Z,1009.40
2018-12-01T02:18:21.142Z,1009.41
2018-12-01T02:18:21.742Z,1009.38
2018-12-01T02:18:22.353Z,1009.39
2018-12-01T02:18:22.942Z,1009.39
2018-12-01T02:18:23.542Z,1009.40
2018-12-01T02:18:24.141Z,1009.38
2018-12-01T02:19:17.620Z,1009.35
2018-12-01T02:19:18.194Z,1009.37
2018-12-01T02:19:18.796Z,1009.39
2018-12-01T02:19:19.395Z,1009.37
2018-12-01T02:19:20.000Z,1009.39
2018-12-01T02:19:20.601Z,1009.38
2018-12-01T02:19:21.202Z,1009.35
2018-12-01T02:19:21.800Z,1009.40
2018-12-01T02:20:16.295Z,1009.39
2018-12-01T02:20:16.871Z,1009.36
2018-12-01T02:20:17.469Z,1009.38
2018-12-01T02:20:18.069Z,1009.39
2018-12-01T02:20:18.669Z,1009.39
2018-12-01T02:20:19.269Z,1009.39
2018-12-01T02:20:19.870Z,1009.39
2018-12-01T02:20:20.469Z,1009.35
2018-12-01T02:21:13.947Z,1009.38
2018-12-01T02:21:14.525Z,1009.39
2018-12-01T02:21:15.123Z,1009.37
2018-12-01T02:21:15.721Z,1009.37
2018-12-01T02:21:16.323Z,1009.35
2018-12-01T02:21:16.921Z,1009.37
2018-12-01T02:21:17.521Z,1009.37
2018-12-01T02:21:18.121Z,1009.40
2018-12-01T02:22:11.599Z,1009.37
2018-12-01T02:22:12.177Z,1009.36
2018-12-01T02:22:12.774Z,1009.39
2018-12-01T02:22:13.372Z,1009.36
2018-12-01T02:22:13.972Z,1009.39
2018-12-01T02:22:14.574Z,1009.35
2018-12-01T02:22:15.173Z,1009.32
2018-12-01T02:22:15.774Z,1009.37
2018-12-01T02:23:10.277Z,1009.38
2018-12-01T02:23:10.850Z,1009.41
2018-12-01T02:23:11.449Z,1009.38
2018-12-01T02:23:12.049Z,1009.41
2018-12-01T02:23:12.648Z,1009.41
2018-12-01T02:23:13.249Z,1009.44
2018-12-01T02:23:13.849Z,1009.40
2018-12-01T02:23:14.448Z,1009.42
2018-12-01T02:24:08.951Z,1009.40
2018-12-01T02:24:09.526Z,1009.41
2018-12-01T02:24:10.125Z,1009.43
2018-12-01T02:24:10.725Z,1009.36
2018-12-01T02:24:11.324Z,1009.43
2018-12-01T02:24:11.929Z,1009.41
2018-12-01T02:24:12.524Z,1009.41
2018-12-01T02:24:13.129Z,1009.41
2018-12-01T02:25:07.627Z,1009.45
2018-12-01T02:25:08.202Z,1009.43
2018-12-01T02:25:08.800Z,1009.42
2018-12-01T02:25:09.399Z,1009.44
2018-12-01T02:25:10.001Z,1009.45
2018-12-01T02:25:10.599Z,1009.45
2018-12-01T02:25:11.199Z,1009.43
2018-12-01T02:25:11.799Z,1009.43
2018-12-01T02:26:06.304Z,1009.42
2018-12-01T02:26:06.875Z,1009.39
2018-12-01T02:26:07.479Z,1009.41
2018-12-01T02:26:08.075Z,1009.44
2018-12-01T02:26:08.677Z,1009.44
2018-12-01T02:26:09.275Z,1009.42
2018-12-01T02:26:09.873Z,1009.42
2018-12-01T02:26:10.478Z,1009.43
2018-12-01T02:27:04.977Z,1009.44
2018-12-01T02:27:05.560Z,1009.43
2018-12-01T02:27:06.150Z,1009.42
2018-12-01T02:27:06.751Z,1009.45
2018-12-01T02:27:07.349Z,1009.43
2018-12-01T02:27:07.949Z,1009.44
2018-12-01T02:27:08.549Z,1009.43
2018-12-01T02:27:09.148Z,1009.45
2018-12-01T02:28:03.653Z,1009.47
2018-12-01T02:28:04.226Z,1009.43
2018-12-01T02:28:04.827Z,1009.47
2018-12-01T02:28:05.430Z,1009.47
2018-12-01T02:28:06.028Z,1009.46
2018-12-01T02:28:06.627Z,1009.46
2018-12-01T02:28:07.227Z,1009.47
2018-12-01T02:28:07.827Z,1009.48
2018-12-01T02:29:01.305Z,1009.47
2018-12-01T02:29:01.879Z,1009.46
2018-12-01T02:29:02.480Z,1009.47
2018-12-01T02:29:03.079Z,1009.45
2018-12-01T02:29:03.681Z,1009.45
2018-12-01T02:29:04.279Z,1009.46
2018-12-01T02:29:04.879Z,1009.51
2018-12-01T02:29:05.478Z,1009.47
2018-12-01T02:29:59.984Z,1009.45
2018-12-01T02:30:00.555Z,1009.43
2018-12-01T02:30:01.168Z,1009.42
2018-12-01T02:30:01.754Z,1009.45
2018-12-01T02:30:02.354Z,1009.45
2018-12-01T02:30:02.954Z,1009.46
2018-12-01T02:30:03.553Z,1009.47
2018-12-01T02:30:04.156Z,1009.44
2018-12-01T02:30:57.633Z,1009.45
2018-12-01T02:30:58.208Z,1009.48
2018-12-01T02:30:58.809Z,1009.50
2018-12-01T02:30:59.408Z,1009.48
2018-12-01T02:31:00.007Z,1009.48
2018-12-01T02:31:00.608Z,1009.47
2018-12-01T02:31:01.209Z,1009.48
2018-12-01T02:31:01.807Z,1009.45
2018-12-01T02:31:55.283Z,1009.51
2018-12-01T02:31:55.859Z,1009.50
2018-12-01T02:31:56.459Z,1009.48
2018-12-01T02:31:57.059Z,1009.51
2018-12-01T02:31:57.659Z,1009.50
2018-12-01T02:31:58.263Z,1009.52
2018-12-01T02:31:58.859Z,1009.52
2018-12-01T02:31:59.459Z,1009.51
2018-12-01T02:32:53.960Z,1009.47
2018-12-01T02:32:54.534Z,1009.46
2018-12-01T02:32:55.133Z,1009.48
2018-12-01T02:32:55.734Z,1009.47
2018-12-01T02:32:56.333Z,1009.47
2018-12-01T02:32:56.936Z,1009.46
2018-12-01T02:32:57.533Z,1009.48
2018-12-01T02:32:58.133Z,1009.49
2018-12-01T02:33:51.610Z,1009.54
2018-12-01T02:33:52.187Z,1009.52
2018-12-01T02:33:52.787Z,1009.51
2018-12-01T02:33:53.386Z,1009.49
2018-12-01T02:33:53.986Z,1009.48
2018-12-01T02:33:54.586Z,1009.48
2018-12-01T02:33:55.185Z,1009.49
2018-12-01T02:33:55.786Z,1009.49
2018-12-01T02:34:49.270Z,1009.52
2018-12-01T02:34:49.838Z,1009.52
2018-12-01T02:34:50.438Z,1009.53
2018-12-01T02:34:51.037Z,1009.53
2018-12-01T02:34:51.637Z,1009.52
2018-12-01T02:34:52.237Z,1009.54
2018-12-01T02:34:52.843Z,1009.51
2018-12-01T02:34:53.437Z,1009.51
2018-12-01T02:35:46.915Z,1009.55
2018-12-01T02:35:47.491Z,1009.55
2018-12-01T02:35:48.091Z,1009.56
2018-12-01T02:35:48.689Z,1009.54
2018-12-01T02:35:49.289Z,1009.49
2018-12-01T02:35:49.890Z,1009.51
2018-12-01T02:35:50.490Z,1009.50
2018-12-01T02:35:51.089Z,1009.51
2018-12-01T02:36:44.566Z,1009.51
2018-12-01T02:36:45.143Z,1009.49
2018-12-01T02:36:45.744Z,1009.49
2018-12-01T02:36:46.342Z,1009.50
2018-12-01T02:36:46.942Z,1009.52
2018-12-01T02:36:47.540Z,1009.52
2018-12-01T02:36:48.140Z,1009.55
2018-12-01T02:36:48.740Z,1009.53
2018-12-01T02:37:43.244Z,1009.54
2018-12-01T02:37:43.819Z,1009.51
2018-12-01T02:37:44.417Z,1009.53
2018-12-01T02:37:45.017Z,1009.51
2018-12-01T02:37:45.617Z,1009.53
2018-12-01T02:37:46.216Z,1009.56
2018-12-01T02:37:46.816Z,1009.56
2018-12-01T02:37:47.416Z,1009.53
2018-12-01T02:38:40.893Z,1009.52
2018-12-01T02:38:41.472Z,1009.51
2018-12-01T02:38:42.069Z,1009.50
2018-12-01T02:38:42.668Z,1009.53
2018-12-01T02:38:43.269Z,1009.54
2018-12-01T02:38:43.871Z,1009.54
2018-12-01T02:38:44.469Z,1009.55
2018-12-01T02:38:45.068Z,1009.55
2018-12-01T02:39:38.545Z,1009.52
2018-12-01T02:39:39.126Z,1009.50
2018-12-01T02:39:39.719Z,1009.49
2018-12-01T02:39:40.321Z,1009.50
2018-12-01T02:39:40.920Z,1009.50
2018-12-01T02:39:41.521Z,1009.54
2018-12-01T02:39:42.120Z,1009.47
2018-12-01T02:39:42.731Z,1009.49
2018-12-01T02:40:37.223Z,1009.50
2018-12-01T02:40:37.796Z,1009.47
2018-12-01T02:40:38.396Z,1009.48
2018-12-01T02:40:38.999Z,1009.48
2018-12-01T02:40:39.596Z,1009.52
2018-12-01T02:40:40.195Z,1009.51
2018-12-01T02:40:40.795Z,1009.50
2018-12-01T02:40:41.395Z,1009.53
2018-12-01T02:41:34.873Z,1009.43
2018-12-01T02:41:35.448Z,1009.47
2018-12-01T02:41:36.048Z,1009.44
2018-12-01T02:41:36.646Z,1009.47
2018-12-01T02:41:37.247Z,1009.50
2018-12-01T02:41:37.847Z,1009.49
2018-12-01T02:41:38.446Z,1009.50
2018-12-01T02:41:39.047Z,1009.49
2018-12-01T02:42:32.525Z,1009.52
2018-12-01T02:42:33.100Z,1009.48
2018-12-01T02:42:33.702Z,1009.49
2018-12-01T02:42:34.300Z,1009.52
2018-12-01T02:42:34.900Z,1009.47
2018-12-01T02:42:35.501Z,1009.52
2018-12-01T02:42:36.099Z,1009.52
2018-12-01T02:42:36.700Z,1009.48
2018-12-01T02:43:31.203Z,1009.48
2018-12-01T02:43:31.775Z,1009.46
2018-12-01T02:43:32.375Z,1009.45
2018-12-01T02:43:32.975Z,1009.48
2018-12-01T02:43:33.573Z,1009.47
2018-12-01T02:43:34.174Z,1009.46
2018-12-01T02:43:34.774Z,1009.48
2018-12-01T02:43:35.374Z,1009.48
2018-12-01T02:44:29.876Z,1009.50
2018-12-01T02:44:30.450Z,1009.49
2018-12-01T02:44:31.057Z,1009.49
2018-12-01T02:44:31.651Z,1009.51
2018-12-01T02:44:32.250Z,1009.50
2018-12-01T02:44:32.851Z,1009.50
2018-12-01T02:44:33.450Z,1009.46
2018-12-01T02:44:34.050Z,1009.48
2018-12-01T02:45:27.529Z,1009.46
2018-12-01T02:45:28.102Z,1009.49
2018-12-01T02:45:28.703Z,1009.45
2018-12-01T02:45:29.304Z,1009.47
2018-12-01T02:45:29.903Z,1009.47
2018-12-01T02:45:30.504Z,1009.44
2018-12-01T02:45:31.102Z,1009.48
2018-12-01T02:45:31.702Z,1009.46
2018-12-01T02:46:25.178Z,1009.47
2018-12-01T02:46:25.755Z,1009.47
2018-12-01T02:46:26.357Z,1009.46
2018-12-01T02:46:26.955Z,1009.48
2018-12-01T02:46:27.554Z,1009.46
2018-12-01T02:46:28.155Z,1009.44
2018-12-01T02:46:28.758Z,1009.44
2018-12-01T02:46:29.354Z,1009.46
2018-12-01T02:47:22.830Z,1009.45
2018-12-01T02:47:23.407Z,1009.44
2018-12-01T02:47:24.006Z,1009.47
2018-12-01T02:47:24.608Z,1009.44
2018-12-01T02:47:25.206Z,1009.46
2018-12-01T02:47:25.806Z,1009.49
2018-12-01T02:47:26.406Z,1009.49
2018-12-01T02:47:27.006Z,1009.47
2018-12-01T02:48:20.483Z,1009.49
2018-12-01T02:48:21.059Z,1009.48
2018-12-01T02:48:21.659Z,1009.49
2018-12-01T02:48:22.258Z,1009.46
2018-12-01T02:48:22.858Z,1009.51
2018-12-01T02:48:23.457Z,1009.46
2018-12-01T02:48:24.057Z,1009.48
2018-12-01T02:48:24.661Z,1009.50
2018-12-01T02:49:18.135Z,1009.48
2018-12-01T02:49:18.709Z,1009.49
2018-12-01T02:49:19.310Z,1009.50
2018-12-01T02:49:19.910Z,1009.50
2018-12-01T02:49:20.509Z,1009.49
2018-12-01T02:49:21.111Z,1009.50
2018-12-01T02:49:21.709Z,1009.50
2018-12-01T02:49:22.311Z,1009.46
2018-12-01T02:50:15.785Z,1009.46
2018-12-01T02:50:16.362Z,1009.49
2018-12-01T02:50:16.966Z,1009.47
2018-12-01T02:50:17.596Z,1009.46
2018-12-01T02:50:18.171Z,1009.48
2018-12-01T02:50:18.761Z,1009.47
2018-12-01T02:50:19.363Z,1009.47
2018-12-01T02:50:19.963Z,1009.46
2018-12-01T02:51:14.463Z,1009.45
2018-12-01T02:51:15.036Z,1009.44
2018-12-01T02:51:15.637Z,1009.46
2018-12-01T02:51:16.241Z,1009.45
2018-12-01T02:51:16.838Z,1009.48
2018-12-01T02:51:17.436Z,1009.48
2018-12-01T02:51:18.035Z,1009.50
2018-12-01T02:51:18.637Z,1009.48
2018-12-01T02:52:12.115Z,1009.48
2018-12-01T02:52:12.689Z,1009.47
2018-12-01T02:52:13.289Z,1009.45
2018-12-01T02:52:13.889Z,1009.45
2018-12-01T02:52:14.488Z,1009.47
2018-12-01T02:52:15.090Z,1009.49
2018-12-01T02:52:15.689Z,1009.49
2018-12-01T02:52:16.287Z,1009.48
2018-12-01T02:53:10.791Z,1009.45
2018-12-01T02:53:11.367Z,1009.45
2018-12-01T02:53:11.964Z,1009.47
2018-12-01T02:53:12.563Z,1009.45
2018-12-01T02:53:13.163Z,1009.47
2018-12-01T02:53:13.764Z,1009.48
2018-12-01T02:53:14.363Z,1009.45
2018-12-01T02:53:14.963Z,1009.45
2018-12-01T02:54:09.472Z,1009.46
2018-12-01T02:54:10.040Z,1009.47
2018-12-01T02:54:10.638Z,1009.45
2018-12-01T02:54:11.238Z,1009.47
2018-12-01T02:54:11.838Z,1009.45
2018-12-01T02:54:12.442Z,1009.46
2018-12-01T02:54:13.038Z,1009.43
2018-12-01T02:54:13.638Z,1009.44
2018-12-01T02:55:07.119Z,1009.45
2018-12-01T02:55:07.693Z,1009.46
2018-12-01T02:55:08.292Z,1009.46
2018-12-01T02:55:08.893Z,1009.47
2018-12-01T02:55:09.491Z,1009.46
2018-12-01T02:55:10.091Z,1009.50
2018-12-01T02:55:10.692Z,1009.47
2018-12-01T02:55:11.291Z,1009.49
2018-12-01T02:56:04.769Z,1009.49
2018-12-01T02:56:05.347Z,1009.47
2018-12-01T02:56:05.944Z,1009.48
2018-12-01T02:56:06.543Z,1009.45
2018-12-01T02:56:07.143Z,1009.51
2018-12-01T02:56:07.745Z,1009.47
2018-12-01T02:56:08.350Z,1009.47
2018-12-01T02:56:08.943Z,1009.47
2018-12-01T02:57:03.447Z,1009.47
2018-12-01T02:57:04.019Z,1009.48
2018-12-01T02:57:04.619Z,1009.48
2018-12-01T02:57:05.219Z,1009.51
2018-12-01T02:57:05.819Z,1009.46
2018-12-01T02:57:06.421Z,1009.49
2018-12-01T02:57:07.018Z,1009.46
2018-12-01T02:57:07.618Z,1009.46
2018-12-01T02:58:01.099Z,1009.44
2018-12-01T02:58:01.671Z,1009.44
2018-12-01T02:58:02.274Z,1009.46
2018-12-01T02:58:02.871Z,1009.48
2018-12-01T02:58:03.474Z,1009.45
2018-12-01T02:58:04.072Z,1009.47
2018-12-01T02:58:04.671Z,1009.46
2018-12-01T02:58:05.270Z,1009.46
2018-12-01T02:58:59.773Z,1009.47
2018-12-01T02:59:00.347Z,1009.46
2018-12-01T02:59:00.947Z,1009.45
2018-12-01T02:59:01.546Z,1009.47
2018-12-01T02:59:02.145Z,1009.49
2018-12-01T02:59:02.746Z,1009.46